Time;durP1;ratioP1;P1;durP2;ratioP2;P2;SDS_P1;SDS_P2;PMS_P1;PMS_P2;Temp;Humidity;BMP_temperature;BMP_pressure;BME280_temperature;BME280_humidity;BME280_pressure;Samples;Min_cycle;Max_cycle;Signal;HPM_P1;HPM_P2
2021/08/20 00:00:48;;;;;;;;;;;;;;;19.30;62.80;99267.94;4866260;29;20049;-90
2021/08/20 00:03:16;;;;;;;14.73;5.28;;;;;;;19.13;62.66;99247.09;4888739;29;19920;-93
2021/08/20 00:05:44;;;;;;;21.17;5.63;;;;;;;18.97;61.58;99221.53;4865794;29;20049;-90
2021/08/20 00:08:10;;;;;;;;;;;;;;;19.25;60.74;99274.63;4891771;29;20044;-91
2021/08/20 00:10:36;;;;;;;12.77;5.80;;;;;;;19.00;61.75;99238.19;4896195;29;19966;-91
2021/08/20 00:13:04;;;;;;;11.30;5.25;;;;;;;18.95;62.45;99235.75;4916337;29;20048;-91
2021/08/20 00:15:33;;;;;;;16.13;5.38;;;;;;;18.96;63.00;99253.97;4899543;29;20070;-91
2021/08/20 00:18:00;;;;;;;11.75;5.20;;;;;;;18.99;63.08;99263.50;4884013;29;20043;-90
2021/08/20 00:20:26;;;;;;;21.90;5.87;;;;;;;19.06;64.08;99285.00;4904256;29;20079;-90
2021/08/20 00:22:52;;;;;;;12.15;5.20;;;;;;;18.92;64.02;99272.50;4884222;29;20045;-92
2021/08/20 00:25:18;;;;;;;8.45;5.45;;;;;;;18.86;62.40;99276.75;4865338;29;20088;-91
2021/08/20 00:27:44;;;;;;;12.73;5.63;;;;;;;18.75;63.06;99250.84;4880789;29;20534;-91
2021/08/20 00:30:10;;;;;;;11.30;5.77;;;;;;;18.95;63.54;99291.16;4898469;29;20041;-91
2021/08/20 00:32:38;;;;;;;11.93;4.93;;;;;;;18.90;63.20;99279.56;4890527;29;20429;-91
2021/08/20 00:35:04;;;;;;;16.23;5.70;;;;;;;18.91;62.75;99268.16;4880283;29;20072;-87
2021/08/20 00:37:35;;;;;;;13.63;5.72;;;;;;;19.00;64.35;99288.06;4887677;29;20316;-81
2021/08/20 00:40:13;;;;;;;15.20;6.20;;;;;;;18.92;65.03;99294.66;4898209;29;20231;-87
2021/08/20 00:42:39;;;;;;;16.92;6.47;;;;;;;18.89;65.93;99289.88;4915297;29;20051;-87
2021/08/20 00:45:06;;;;;;;17.40;6.30;;;;;;;18.92;65.80;99305.75;4915225;29;20052;-86
2021/08/20 00:47:32;;;;;;;12.60;5.30;;;;;;;18.82;65.30;99295.28;4915295;29;20518;-87
2021/08/20 00:50:02;;;;;;;14.33;6.30;;;;;;;18.86;65.33;99295.34;4913789;29;20095;-87
2021/08/20 00:52:28;;;;;;;18.63;6.50;;;;;;;18.65;66.36;99270.81;4915274;29;20090;-87
2021/08/20 00:54:54;;;;;;;15.75;5.97;;;;;;;18.60;66.70;99271.91;4915236;29;20114;-87
2021/08/20 00:57:21;;;;;;;14.93;6.23;;;;;;;18.68;67.17;99298.56;4898318;29;20088;-86
2021/08/20 05:35:47;;;;;;;71.53;13.43;;;;;;;20.52;60.96;99334.25;5409276;23;20063;-92
2021/08/20 05:38:29;;;;;;;33.58;10.52;;;;;;;20.58;58.94;99340.28;5111053;27;20381;-84
2021/08/20 05:41:07;;;;;;;32.50;9.38;;;;;;;20.64;58.34;99341.53;5080378;27;1536525;-88
2021/08/20 05:43:47;;;;;;;54.05;17.58;;;;;;;20.58;59.26;99320.81;5116330;27;20399;-86
2021/08/20 05:46:44;;;;;;;55.63;22.30;;;;;;;20.78;59.35;99344.44;5091171;27;1754579;-89
2021/08/20 05:49:25;;;;;;;46.58;15.32;;;;;;;20.75;58.88;99347.19;5124282;27;20394;-93
2021/08/20 05:52:08;;;;;;;51.58;12.65;;;;;;;20.85;59.16;99350.09;5099535;27;20397;-93
2021/08/20 05:54:53;;;;;;;41.58;11.48;;;;;;;20.87;59.46;99347.72;5110148;27;20392;-85
2021/08/20 05:57:32;;;;;;;41.80;12.60;;;;;;;20.90;58.68;99351.72;5117365;27;20401;-85
2021/08/20 06:00:12;;;;;;;34.60;10.93;;;;;;;20.99;58.01;99366.13;5111724;27;20919;-88
2021/08/20 06:02:51;;;;;;;45.22;12.98;;;;;;;20.95;58.67;99348.59;5070111;28;20402;-85
2021/08/20 06:05:33;;;;;;;40.33;12.55;;;;;;;21.00;57.79;99353.03;5108437;27;20392;-85
2021/08/20 06:08:13;;;;;;;42.33;11.73;;;;;;;20.99;57.13;99355.00;5067801;28;20395;-85
2021/08/20 06:10:52;;;;;;;34.08;10.05;;;;;;;21.05;56.54;99364.56;5085438;27;1561828;-87
2021/08/20 06:13:35;;;;;;;47.80;10.77;;;;;;;21.17;57.57;99360.72;5106671;27;20396;-90
2021/08/20 06:16:16;;;;;;;84.82;13.80;;;;;;;21.22;57.11;99357.56;5140997;27;20345;-90
2021/08/20 06:18:55;;;;;;;35.58;12.20;;;;;;;21.28;56.23;99352.47;5108208;27;20407;-86
2021/08/20 06:21:35;;;;;;;82.07;13.80;;;;;;;21.39;55.75;99363.72;5109033;27;20394;-90
2021/08/20 06:24:13;;;;;;;51.93;11.07;;;;;;;21.40;54.56;99352.22;5077675;27;1886012;-88
2021/08/20 06:26:53;;;;;;;85.05;15.65;;;;;;;21.44;54.96;99350.25;5109006;27;20407;-90
2021/08/20 06:29:33;;;;;;;37.38;9.60;;;;;;;21.47;53.35;99345.91;5141884;27;20408;-84
2021/08/20 06:32:13;;;;;;;56.20;11.23;;;;;;;21.47;54.38;99348.69;5068081;27;20406;-84
2021/08/20 06:34:52;;;;;;;35.65;8.75;;;;;;;21.50;53.86;99340.38;5106208;27;20392;-85
2021/08/20 06:37:32;;;;;;;97.13;12.77;;;;;;;21.54;51.93;99343.97;5048311;28;20392;-84
2021/08/20 06:40:13;;;;;;;57.83;9.50;;;;;;;21.41;52.10;99334.34;5171056;27;20666;-84
2021/08/20 06:42:52;;;;;;;35.22;8.75;;;;;;;21.45;52.11;99326.00;5089134;27;1616413;-94
2021/08/20 06:45:33;;;;;;;34.83;9.35;;;;;;;21.52;50.81;99340.78;5109830;27;20384;-87
2021/08/20 06:48:16;;;;;;;106.93;13.88;;;;;;;21.62;52.06;99341.22;5110214;27;20403;-90
2021/08/20 06:50:56;;;;;;;42.65;10.20;;;;;;;21.70;52.09;99335.34;5108966;27;20398;-83
2021/08/20 06:53:36;;;;;;;37.13;8.43;;;;;;;21.67;51.47;99333.34;5128377;27;20443;-82
2021/08/20 06:56:02;;;;;;;32.20;7.90;;;;;;;21.77;51.66;99342.94;5127251;28;20115;-84
2021/08/20 06:58:41;;;;;;;45.78;8.18;;;;;;;21.81;50.65;99340.97;5107680;27;20404;-83
2021/08/20 07:01:21;;;;;;;36.13;8.48;;;;;;;21.77;50.09;99329.03;5048726;28;20404;-82
2021/08/20 07:04:03;;;;;;;39.90;8.73;;;;;;;21.86;49.54;99331.47;5109296;27;20406;-82
2021/08/20 07:06:44;;;;;;;36.72;8.90;;;;;;;21.91;49.05;99337.44;5109294;27;20773;-82
2021/08/20 07:09:25;;;;;;;65.82;11.00;;;;;;;21.90;48.46;99332.28;5109294;27;20393;-83
2021/08/20 07:12:05;;;;;;;37.50;9.02;;;;;;;22.02;49.72;99329.97;5070176;28;20395;-83
2021/08/20 07:14:45;;;;;;;29.48;9.35;;;;;;;22.01;48.78;99328.34;5098960;27;21054;-84
2021/08/20 07:17:23;;;;;;;29.05;8.30;;;;;;;22.02;49.26;99315.25;5095611;27;1505059;-82
2021/08/20 07:20:06;;;;;;;40.00;9.02;;;;;;;22.18;49.49;99338.00;5108705;27;20392;-83
2021/08/20 07:22:46;;;;;;;19.08;8.68;;;;;;;22.04;48.13;99324.81;5159192;27;20421;-86
2021/08/20 07:25:27;;;;;;;41.25;10.90;;;;;;;22.07;50.16;99312.09;5102067;27;20396;-84
2021/08/20 07:28:07;;;;;;;40.65;10.75;;;;;;;22.26;50.73;99331.31;5106403;27;20404;-83
2021/08/20 07:30:47;;;;;;;33.22;8.38;;;;;;;22.24;49.50;99330.88;5048704;28;20403;-82
2021/08/20 07:33:30;;;;;;;30.20;8.98;;;;;;;22.22;50.77;99311.00;5067646;27;21008;-85
2021/08/20 07:36:10;;;;;;;47.28;8.70;;;;;;;22.34;50.31;99314.63;5146350;27;20341;-82
2021/08/20 07:38:52;;;;;;;20.50;8.13;;;;;;;22.37;48.70;99325.78;5063884;28;20399;-82
2021/08/20 07:41:33;;;;;;;18.48;7.53;;;;;;;22.46;49.01;99326.22;5059802;27;20395;-85
2021/08/20 07:44:15;;;;;;;39.80;8.48;;;;;;;22.49;48.67;99317.06;5106516;27;20404;-81
2021/08/20 07:46:54;;;;;;;50.10;10.93;;;;;;;22.35;47.75;99303.09;5091593;27;1452399;-84
2021/08/20 07:49:34;;;;;;;47.70;10.20;;;;;;;22.45;48.25;99313.47;5067517;28;20402;-83
2021/08/20 07:52:13;;;;;;;25.50;7.20;;;;;;;22.51;45.70;99313.88;5083799;27;20409;-82
2021/08/20 07:54:55;;;;;;;32.75;8.23;;;;;;;22.52;46.38;99310.72;5097221;27;20938;-83
2021/08/20 07:57:45;;;;;;;18.45;7.63;;;;;;;22.50;46.71;99307.50;5112228;27;20924;-79
2021/08/20 08:00:28;;;;;;;18.67;7.28;;;;;;;22.50;46.75;99312.28;5064747;28;20407;-85
2021/08/20 08:03:13;;;;;;;46.47;10.10;;;;;;;22.67;47.74;99322.69;5104749;27;20394;-86
2021/08/20 08:06:20;;;;;;;29.73;8.00;;;;;;;22.44;46.40;99292.38;5127587;27;20393;-85
2021/08/20 08:09:17;;;;;;;21.08;7.20;;;;;;;22.67;44.83;99319.88;5188229;27;20555;-85
2021/08/20 08:11:56;;;;;;;25.20;7.13;;;;;;;22.77;44.53;99321.09;4625719;27;15206365;-76
2021/08/20 08:14:56;;;;;;;17.67;7.07;;;;;;;22.83;45.74;99316.75;5083609;27;20745;-80
2021/08/20 08:17:35;;;;;;;22.03;8.53;;;;;;;22.78;44.46;99310.75;4491793;27;18701886;-80
2021/08/20 08:20:30;;;;;;;24.00;8.45;;;;;;;22.87;43.83;99314.75;5084523;27;20498;-80
2021/08/20 08:23:31;;;;;;;31.70;8.52;;;;;;;22.99;46.89;99319.19;5120253;27;20385;-80
2021/08/20 08:26:11;;;;;;;24.63;7.82;;;;;;;23.00;45.69;99308.84;4615986;27;15068453;-82
2021/08/20 08:29:04;;;;;;;57.30;9.73;;;;;;;23.14;45.62;99320.78;5081653;27;20407;-80
2021/08/20 08:31:57;;;;;;;20.58;8.35;;;;;;;23.19;44.33;99322.41;5087512;27;20410;-78
2021/08/20 08:34:56;;;;;;;79.50;11.75;;;;;;;23.23;45.16;99320.41;5179437;27;20417;-84
2021/08/20 08:38:06;;;;;;;54.28;9.70;;;;;;;23.33;44.93;99307.63;5124197;27;20415;-78
2021/08/20 08:41:02;;;;;;;49.15;9.68;;;;;;;23.29;43.73;99313.22;5134152;27;20382;-78
2021/08/20 08:43:56;;;;;;;58.95;8.82;;;;;;;23.39;44.17;99306.06;5085214;27;20929;-76
2021/08/20 08:46:49;;;;;;;31.85;7.88;;;;;;;23.42;45.02;99319.19;5088743;27;20411;-76
2021/08/20 08:49:31;;;;;;;112.85;14.07;;;;;;;23.41;45.16;99317.59;5109397;27;20396;-77
2021/08/20 08:52:10;;;;;;;38.03;8.02;;;;;;;23.35;42.77;99319.22;5109378;27;20851;-78
2021/08/20 08:54:50;;;;;;;29.42;7.93;;;;;;;23.34;46.60;99321.19;5109447;27;20388;-77
2021/08/20 08:57:30;;;;;;;27.80;7.65;;;;;;;23.39;45.14;99320.78;5109512;27;20396;-76
2021/08/20 09:00:11;;;;;;;31.80;8.60;;;;;;;23.41;42.72;99331.53;5117748;27;20765;-78
2021/08/20 09:02:50;;;;;;;30.83;8.20;;;;;;;23.37;43.38;99312.00;5068885;28;20391;-78
2021/08/20 09:05:43;;;;;;;22.73;7.32;;;;;;;23.48;41.73;99325.16;5063923;27;2547256;-81
2021/08/20 09:08:24;;;;;;;50.50;8.43;;;;;;;23.53;41.23;99325.56;5109230;27;20400;-77
2021/08/20 09:11:01;;;;;;;30.25;7.50;;;;;;;23.54;42.18;99329.97;5109394;28;20035;-81
2021/08/20 09:13:42;;;;;;;84.63;11.98;;;;;;;23.54;44.35;99315.19;5171505;27;20447;-80
2021/08/20 09:16:20;;;;;;;64.28;10.55;;;;;;;23.64;43.65;99320.78;5078674;27;1495971;-80
2021/08/20 09:19:15;;;;;;;28.38;7.90;;;;;;;23.70;41.77;99314.81;5109636;27;20407;-88
2021/08/20 09:21:56;;;;;;;55.75;9.18;;;;;;;23.77;43.05;99318.38;5110687;27;20396;-95
2021/08/20 09:24:38;;;;;;;26.53;7.47;;;;;;;23.80;42.83;99316.78;5097189;27;1666705;-82
2021/08/20 09:27:21;;;;;;;28.05;8.07;;;;;;;23.87;40.49;99319.53;5146378;27;20184;-95
2021/08/20 09:30:09;;;;;;;20.05;7.20;;;;;;;23.94;41.09;99325.13;5111249;27;20399;-87
2021/08/20 09:32:52;;;;;;;36.25;8.82;;;;;;;24.06;43.61;99333.06;5111225;27;20147;-87
2021/08/20 09:35:36;;;;;;;29.67;8.57;;;;;;;24.17;41.78;99323.84;5070527;28;20403;-92
2021/08/20 09:38:16;;;;;;;89.95;12.23;;;;;;;24.27;42.06;99334.16;5110982;27;20414;-94
2021/08/20 09:40:59;;;;;;;35.33;7.47;;;;;;;24.26;39.65;99335.38;5111213;27;20396;-82
2021/08/20 09:43:39;;;;;;;47.88;9.00;;;;;;;24.27;40.74;99336.97;5103832;27;1479627;-88
2021/08/20 09:46:20;;;;;;;18.75;7.30;;;;;;;24.30;38.83;99342.53;5110786;27;20820;-91
2021/08/20 09:49:02;;;;;;;15.93;7.07;;;;;;;24.32;38.52;99339.34;5110664;27;20431;-88
2021/08/20 09:51:44;;;;;;;15.48;6.90;;;;;;;24.37;39.46;99342.53;5110938;27;20392;-92
2021/08/20 09:54:26;;;;;;;22.80;7.60;;;;;;;24.35;40.04;99322.56;5089459;28;20914;-93
2021/08/20 09:57:05;;;;;;;34.15;8.65;;;;;;;24.45;39.46;99328.56;5070530;28;20922;-91
2021/08/20 09:59:47;;;;;;;32.45;7.85;;;;;;;24.52;40.48;99329.31;5173421;27;20130;-80
2021/08/20 10:02:29;;;;;;;24.20;7.68;;;;;;;24.58;40.09;99326.88;5110472;27;20392;-91
2021/08/20 10:05:09;;;;;;;62.00;9.32;;;;;;;24.52;38.38;99325.72;5110092;27;20389;-79
2021/08/20 10:07:49;;;;;;;25.30;8.48;;;;;;;24.55;37.26;99325.69;5109380;27;20432;-81
2021/08/20 10:10:30;;;;;;;19.13;7.10;;;;;;;24.59;38.40;99329.25;5109294;27;20927;-79
2021/08/20 10:13:17;;;;;;;48.95;7.80;;;;;;;24.61;37.54;99329.66;5109340;27;20384;-78
2021/08/20 10:16:01;;;;;;;28.90;7.15;;;;;;;24.69;38.73;99330.41;5109380;27;20146;-81
2021/08/20 10:18:30;;;;;;;24.65;6.97;;;;;;;24.70;38.55;99312.47;5109509;28;20032;-78
2021/08/20 10:20:58;;;;;;;90.35;10.52;;;;;;;24.89;39.60;99313.13;5109264;28;20042;-78
2021/08/20 10:23:24;;;;;;;20.13;6.88;;;;;;;24.88;39.40;99309.53;5108156;28;20040;-79
2021/08/20 10:25:54;;;;;;;24.10;7.50;;;;;;;24.91;39.70;99317.09;5108017;28;20063;-78
2021/08/20 10:28:21;;;;;;;37.47;8.60;;;;;;;24.78;38.98;99304.81;5109136;28;20440;-79
2021/08/20 10:30:49;;;;;;;25.15;7.28;;;;;;;24.89;39.01;99304.72;5107043;28;20547;-78
2021/08/20 10:33:15;;;;;;;26.20;7.07;;;;;;;24.85;37.04;99287.97;5108785;28;20093;-78
2021/08/20 10:35:51;;;;;;;27.73;7.50;;;;;;;25.01;37.21;99299.44;5107268;28;20054;-80
2021/08/20 10:38:24;;;;;;;55.13;8.57;;;;;;;25.09;38.73;99297.38;5108973;28;20097;-80
2021/08/20 10:41:23;;;;;;;19.25;7.00;;;;;;;25.15;38.39;99298.56;5108838;28;20043;-79
2021/08/20 10:44:15;;;;;;;15.18;6.28;;;;;;;25.19;36.36;99302.13;5109386;27;20396;-81
2021/08/20 10:46:58;;;;;;;11.40;6.22;;;;;;;25.18;37.01;99300.53;5109617;27;20404;-81
2021/08/20 10:49:40;;;;;;;19.25;6.80;;;;;;;25.11;36.16;99285.81;5109521;27;20384;-78
2021/08/20 10:52:29;;;;;;;26.15;9.00;;;;;;;25.19;38.17;99295.75;5109402;27;20768;-78
2021/08/20 10:55:12;;;;;;;24.98;7.55;;;;;;;25.25;35.81;99310.88;5089874;27;20149;-80
2021/08/20 10:57:52;;;;;;;17.35;6.90;;;;;;;25.31;36.05;99318.41;5109427;27;20935;-79
2021/08/20 11:00:36;;;;;;;29.98;7.45;;;;;;;25.29;35.99;99306.84;5102942;27;1446756;-79
2021/08/20 11:03:15;;;;;;;28.25;7.68;;;;;;;25.41;35.84;99299.94;5088990;27;20961;-79
2021/08/20 11:05:57;;;;;;;17.55;6.65;;;;;;;25.43;35.02;99294.75;5109510;27;20385;-80
2021/08/20 11:08:38;;;;;;;32.83;8.10;;;;;;;25.66;35.21;99307.28;5109469;27;20392;-81
2021/08/20 11:11:41;;;;;;;20.05;7.57;;;;;;;25.58;35.60;99300.97;5109403;27;20457;-81
2021/08/20 11:14:29;;;;;;;44.75;7.95;;;;;;;25.61;35.50;99285.38;5109491;27;20925;-80
2021/08/20 11:17:10;;;;;;;28.65;7.32;;;;;;;25.46;35.46;99293.91;5129872;27;20132;-80
2021/08/20 11:19:51;;;;;;;30.85;7.47;;;;;;;25.36;35.53;99291.97;5109459;27;20749;-80
2021/08/20 11:22:36;;;;;;;21.02;6.53;;;;;;;25.38;34.16;99286.00;5109739;28;20055;-79
2021/08/20 11:25:22;;;;;;;55.10;8.68;;;;;;;25.47;35.53;99289.09;5150803;27;20388;-83
2021/08/20 11:28:33;;;;;;;27.88;7.13;;;;;;;25.63;34.88;99292.16;5109551;27;20147;-82
2021/08/20 11:31:15;;;;;;;29.13;7.38;;;;;;;25.54;37.45;99292.63;5109405;27;20388;-82
2021/08/20 11:33:46;;;;;;;25.73;6.63;;;;;;;25.50;33.29;99285.47;5109562;28;20032;-82
2021/08/20 11:36:14;;;;;;;23.60;7.30;;;;;;;25.65;35.83;99291.72;5109426;28;20506;-81
2021/08/20 11:38:44;;;;;;;21.05;6.20;;;;;;;25.85;36.55;99295.53;5109432;28;20120;-78
2021/08/20 11:41:25;;;;;;;35.08;8.30;;;;;;;25.89;35.54;99290.66;5109314;28;20619;-85
2021/08/20 11:43:56;;;;;;;47.10;8.07;;;;;;;25.69;34.64;99284.84;5109305;28;20069;-84
2021/08/20 11:46:25;;;;;;;16.98;6.95;;;;;;;25.51;35.43;99281.47;5109721;28;20057;-85
2021/08/20 11:48:59;;;;;;;41.65;7.88;;;;;;;25.45;37.10;99278.31;5109155;28;20039;-86
2021/08/20 11:51:35;;;;;;;29.67;7.65;;;;;;;25.58;36.89;99292.59;5109235;28;20073;-87
2021/08/20 11:54:04;;;;;;;20.40;7.60;;;;;;;25.64;35.80;99287.34;5107920;28;20131;-86
2021/08/20 11:56:30;;;;;;;18.92;7.13;;;;;;;25.77;34.85;99285.59;5109210;28;20054;-87
2021/08/20 11:58:57;;;;;;;22.42;6.57;;;;;;;26.04;34.88;99298.94;5109346;28;20055;-86
2021/08/20 12:01:27;;;;;;;27.08;7.50;;;;;;;26.07;35.33;99279.28;5091186;28;20046;-86
2021/08/20 12:03:59;;;;;;;16.90;6.47;;;;;;;26.09;34.95;99265.63;5107629;28;20063;-86
2021/08/20 12:06:28;;;;;;;20.90;6.18;;;;;;;26.21;33.56;99284.69;5107571;28;20039;-86
2021/08/20 12:08:58;;;;;;;16.35;6.40;;;;;;;26.18;34.43;99282.72;5108733;28;20527;-86
2021/08/20 12:11:28;;;;;;;99.97;13.77;;;;;;;26.37;35.64;99281.28;5109670;28;20039;-85
2021/08/20 12:13:55;;;;;;;65.90;9.57;;;;;;;26.30;34.38;99289.00;5108747;28;20093;-86
2021/08/20 12:16:46;;;;;;;64.60;9.73;;;;;;;26.35;34.98;99282.91;5107531;28;20134;-86
2021/08/20 12:19:43;;;;;;;73.88;9.80;;;;;;;26.22;36.51;99289.09;5109084;28;20510;-86
2021/08/20 12:22:12;;;;;;;25.45;6.25;;;;;;;26.05;35.36;99289.31;5102464;27;20044;-79
2021/08/20 12:24:43;;;;;;;39.00;7.57;;;;;;;26.18;37.12;99291.13;5108287;28;20067;-79
2021/08/20 12:27:33;;;;;;;22.38;6.88;;;;;;;26.39;35.13;99292.06;5108310;28;20047;-79
2021/08/20 12:30:00;;;;;;;34.58;8.18;;;;;;;26.41;34.74;99287.63;5107859;28;20109;-78
2021/08/20 12:32:31;;;;;;;26.42;6.75;;;;;;;26.22;35.89;99282.69;5106900;28;20035;-78
2021/08/20 12:35:06;;;;;;;50.95;10.07;;;;;;;26.22;35.35;99289.09;5108722;28;20405;-78
2021/08/20 12:37:33;;;;;;;44.63;8.75;;;;;;;26.24;36.80;99288.66;5106852;28;20125;-78
2021/08/20 12:40:08;;;;;;;31.70;6.78;;;;;;;26.37;33.51;99291.72;5107733;28;20457;-78
2021/08/20 12:42:44;;;;;;;28.33;6.93;;;;;;;26.39;33.26;99297.66;5094258;28;20035;-78
2021/08/20 12:45:16;;;;;;;39.05;7.93;;;;;;;26.26;33.20;99289.06;5096475;28;20044;-78
2021/08/20 12:47:45;;;;;;;21.85;6.30;;;;;;;26.24;33.35;99285.88;5114618;28;20043;-78
2021/08/20 12:50:13;;;;;;;33.60;6.05;;;;;;;26.26;33.07;99280.66;5113382;28;20050;-77
2021/08/20 12:52:40;;;;;;;39.97;7.95;;;;;;;26.36;33.83;99288.13;5113513;28;20039;-78
2021/08/20 12:55:33;;;;;;;26.40;6.55;;;;;;;26.40;33.32;99286.06;5114468;28;20455;-78
2021/08/20 12:58:02;;;;;;;44.10;8.27;;;;;;;26.53;35.54;99275.09;5107822;28;20052;-79
2021/08/20 13:00:33;;;;;;;40.35;7.07;;;;;;;26.65;33.74;99276.50;5114467;28;20039;-79
2021/08/20 13:03:01;;;;;;;25.70;6.47;;;;;;;26.55;32.03;99272.66;5114648;28;20040;-80
2021/08/20 13:05:27;;;;;;;38.88;7.13;;;;;;;26.68;35.59;99272.88;5114498;28;20047;-79
2021/08/20 13:07:53;;;;;;;40.53;8.32;;;;;;;26.77;34.37;99264.72;5114721;28;20381;-79
2021/08/20 13:10:19;;;;;;;60.67;10.73;;;;;;;26.68;33.35;99259.63;5108437;28;21478;-79
2021/08/20 13:12:47;;;;;;;35.67;8.30;;;;;;;26.68;34.78;99254.03;5073378;28;20572;-85
2021/08/20 13:15:15;;;;;;;28.60;7.13;;;;;;;26.59;33.73;99258.56;5073161;28;20032;-84
2021/08/20 13:17:44;;;;;;;30.20;7.07;;;;;;;26.52;33.48;99270.69;5074766;28;20127;-85
2021/08/20 13:20:12;;;;;;;30.38;7.00;;;;;;;26.56;34.49;99267.84;5083565;28;20072;-85
2021/08/20 13:22:44;;;;;;;37.55;7.63;;;;;;;26.64;32.46;99253.28;5073750;28;20041;-85
2021/08/20 13:25:14;;;;;;;25.45;7.15;;;;;;;26.79;31.98;99262.31;5073854;28;20079;-85
2021/08/20 13:27:43;;;;;;;135.60;11.93;;;;;;;26.69;33.15;99250.03;5073503;28;20098;-86
2021/08/20 13:30:10;;;;;;;17.23;6.13;;;;;;;26.47;34.60;99237.50;5089081;28;20060;-87
2021/08/20 13:32:37;;;;;;;95.38;11.85;;;;;;;26.37;35.70;99244.84;5094013;28;20051;-85
2021/08/20 13:35:05;;;;;;;29.55;8.00;;;;;;;26.40;35.82;99260.81;5093668;28;20523;-85
2021/08/20 13:37:31;;;;;;;30.88;8.00;;;;;;;26.14;35.72;99241.97;5093883;28;20515;-85
2021/08/20 13:40:00;;;;;;;17.02;5.88;;;;;;;26.05;34.82;99242.47;5092821;28;20071;-86
2021/08/20 13:42:31;;;;;;;25.73;7.38;;;;;;;26.06;35.80;99240.47;5076217;28;20043;-85
2021/08/20 13:44:57;;;;;;;23.58;7.07;;;;;;;25.97;36.36;99219.38;5093753;28;20122;-85
2021/08/20 13:47:23;;;;;;;28.60;6.75;;;;;;;25.89;35.93;99214.25;5092310;28;20623;-85
2021/08/20 13:49:50;;;;;;;29.30;8.00;;;;;;;25.89;36.80;99234.66;5092285;28;20048;-86
2021/08/20 13:52:16;;;;;;;55.95;9.85;;;;;;;25.82;36.91;99245.94;5091661;28;20036;-85
2021/08/20 13:54:46;;;;;;;42.95;8.80;;;;;;;25.77;37.01;99232.41;5092956;28;20071;-86
2021/08/20 13:57:12;;;;;;;37.35;8.65;;;;;;;25.66;37.22;99232.53;5075422;28;20032;-86
2021/08/20 13:59:39;;;;;;;67.95;8.98;;;;;;;25.77;38.38;99247.19;5092284;28;20067;-86
2021/08/20 14:02:05;;;;;;;30.50;7.70;;;;;;;25.62;37.68;99228.94;5091998;28;20043;-86
2021/08/20 14:04:32;;;;;;;49.38;8.98;;;;;;;25.73;38.70;99235.25;5092617;28;20089;-85
2021/08/20 14:06:58;;;;;;;46.53;8.15;;;;;;;25.49;38.51;99197.91;5090732;28;20111;-84
2021/08/20 16:11:47;;;;;;;25.45;7.22;;;;;;;24.06;42.68;99260.44;4913449;29;20062;-83
2021/08/20 16:14:13;;;;;;;68.95;9.23;;;;;;;24.00;42.50;99256.47;4912239;29;20075;-87
2021/08/20 16:16:41;;;;;;;40.53;7.85;;;;;;;23.95;42.56;99250.53;4915347;29;20051;-87
2021/08/20 16:19:11;;;;;;;34.05;8.48;;;;;;;23.99;42.90;99265.28;4913398;29;20057;-87
2021/08/20 16:21:38;;;;;;;62.58;8.90;;;;;;;23.90;42.98;99262.91;4917101;29;20052;-86
2021/08/20 16:24:04;;;;;;;39.08;7.47;;;;;;;23.98;42.83;99284.03;4918360;29;20044;-86
2021/08/20 16:26:33;;;;;;;34.88;7.57;;;;;;;23.80;43.53;99256.16;4918305;29;20126;-86
2021/08/20 16:28:59;;;;;;;65.05;9.05;;;;;;;23.85;43.47;99263.34;4918799;29;20828;-88
2021/08/20 16:31:25;;;;;;;34.33;8.43;;;;;;;23.77;44.40;99264.53;4931359;29;20036;-86
2021/08/20 16:33:51;;;;;;;45.88;9.65;;;;;;;23.90;45.10;99280.44;4937369;29;20046;-88
2021/08/20 16:36:18;;;;;;;92.63;12.05;;;;;;;23.83;45.73;99274.09;4920113;29;20146;-87
2021/08/20 16:38:44;;;;;;;68.82;8.95;;;;;;;23.62;45.94;99253.41;4926527;29;20067;-88
2021/08/20 16:41:10;;;;;;;44.38;7.95;;;;;;;23.62;46.10;99275.72;4901274;29;20044;-87
2021/08/20 16:43:36;;;;;;;37.58;7.78;;;;;;;23.50;46.76;99264.19;4916982;29;20044;-89
2021/08/20 16:46:02;;;;;;;64.55;9.93;;;;;;;23.35;47.23;99247.47;4901212;29;20108;-89
2021/08/20 16:48:28;;;;;;;24.90;6.83;;;;;;;23.45;46.80;99282.13;4918245;29;20052;-88
2021/08/20 16:50:54;;;;;;;28.35;6.72;;;;;;;23.37;47.67;99272.16;4901203;29;20940;-90
2021/08/20 16:53:20;;;;;;;43.22;8.32;;;;;;;23.45;46.72;99279.34;4901197;29;20123;-88
2021/08/20 16:55:48;;;;;;;54.28;10.50;;;;;;;23.37;47.06;99266.59;4916914;29;20075;-90
2021/08/20 16:58:14;;;;;;;40.17;8.52;;;;;;;23.39;47.08;99272.56;4901264;29;20067;-89
2021/08/20 17:00:41;;;;;;;28.63;7.30;;;;;;;23.44;47.22;99281.34;4916576;29;20079;-91
2021/08/20 17:03:07;;;;;;;61.53;9.80;;;;;;;23.38;47.47;99284.94;4901541;29;20048;-91
2021/08/20 17:05:33;;;;;;;57.65;9.63;;;;;;;23.38;48.35;99285.72;4917359;29;20421;-90
2021/08/20 17:08:00;;;;;;;32.35;7.97;;;;;;;23.34;48.38;99290.50;4932443;29;20086;-89
2021/08/20 17:10:29;;;;;;;20.63;7.55;;;;;;;23.30;48.10;99281.34;4916016;29;20063;-89
2021/08/20 17:12:55;;;;;;;35.15;8.80;;;;;;;23.37;48.50;99298.06;4900710;29;20115;-89
2021/08/20 17:15:21;;;;;;;29.42;8.48;;;;;;;23.36;49.07;99292.91;4916960;29;20040;-93
2021/08/20 17:17:47;;;;;;;92.50;12.07;;;;;;;23.26;48.56;99285.34;4916684;29;20056;-90
2021/08/20 17:20:13;;;;;;;24.88;8.05;;;;;;;23.22;48.81;99279.75;4916494;29;20091;-88
2021/08/20 17:22:40;;;;;;;38.77;7.93;;;;;;;23.32;48.54;99295.69;4916417;29;20470;-89
2021/08/20 17:25:10;;;;;;;64.60;9.50;;;;;;;23.29;48.03;99288.13;4916626;29;20040;-89
2021/08/20 17:27:36;;;;;;;59.78;11.00;;;;;;;23.34;48.64;99298.88;4900501;29;20040;-89
2021/08/20 17:30:04;;;;;;;52.58;9.32;;;;;;;23.35;48.26;99316.41;4916351;29;20051;-89
2021/08/20 17:32:30;;;;;;;20.13;6.43;;;;;;;23.31;47.78;99302.47;4915798;29;20040;-91
2021/08/20 17:34:57;;;;;;;18.67;7.13;;;;;;;23.24;48.17;99291.28;4916146;29;20403;-89
2021/08/20 17:37:23;;;;;;;22.00;6.82;;;;;;;23.07;48.12;99280.94;4900427;29;20100;-89
2021/08/20 17:39:52;;;;;;;22.45;7.10;;;;;;;23.23;48.45;99308.44;4917350;29;20043;-91
2021/08/20 17:42:18;;;;;;;22.52;6.95;;;;;;;23.18;48.13;99301.28;4926068;29;20059;-89
2021/08/20 17:44:44;;;;;;;38.00;7.78;;;;;;;23.07;47.81;99292.91;4916146;29;20044;-89
2021/08/20 17:47:10;;;;;;;15.98;6.45;;;;;;;23.08;48.39;99294.50;4915905;29;20044;-88
2021/08/20 17:49:38;;;;;;;24.15;6.35;;;;;;;22.96;48.26;99284.53;4915474;29;20119;-91
2021/08/20 17:52:04;;;;;;;16.45;5.95;;;;;;;23.00;49.21;99295.69;4917070;29;20164;-90
2021/08/20 17:54:31;;;;;;;17.17;6.63;;;;;;;23.03;50.25;99313.63;4915953;29;20506;-83
2021/08/20 17:56:57;;;;;;;40.70;8.40;;;;;;;22.94;49.67;99314.00;4919009;29;20059;-85
2021/08/20 17:59:24;;;;;;;26.92;6.57;;;;;;;22.83;50.05;99308.38;4925861;29;20036;-85
2021/08/20 18:01:50;;;;;;;;;;;;;;;22.90;49.50;99329.91;4924562;29;20050;-86
2021/08/20 18:04:25;;;;;;;19.52;6.93;;;;;;;22.72;50.03;99305.59;4922368;29;19927;-86
2021/08/20 18:07:03;;;;;;;15.50;7.03;;;;;;;22.82;49.67;99328.31;4920550;29;20059;-80
2021/08/20 18:09:30;;;;;;;19.38;6.65;;;;;;;22.79;50.56;99340.25;4912841;29;20118;-84
2021/08/20 18:11:56;;;;;;;17.58;6.30;;;;;;;22.74;50.71;99336.63;4913646;29;20474;-80
2021/08/20 18:14:23;;;;;;;15.15;6.90;;;;;;;22.74;51.15;99339.41;4912638;29;20115;-79
2021/08/20 18:16:50;;;;;;;19.60;6.65;;;;;;;22.69;51.49;99337.03;4912825;29;20063;-79
2021/08/20 18:19:15;;;;;;;25.13;7.57;;;;;;;22.63;51.21;99343.38;4912108;29;20040;-80
2021/08/20 18:21:41;;;;;;;22.38;6.68;;;;;;;22.64;51.53;99342.19;4912273;29;20375;-78
2021/08/20 18:24:07;;;;;;;13.73;6.60;;;;;;;22.65;51.83;99347.38;4911694;29;20056;-79
2021/08/20 18:26:35;;;;;;;22.50;7.25;;;;;;;22.63;51.21;99341.38;4911853;29;20474;-78
2021/08/20 18:29:04;;;;;;;25.83;6.80;;;;;;;22.64;51.53;99345.75;4911099;29;20044;-78
2021/08/20 18:31:31;;;;;;;38.67;7.28;;;;;;;22.65;52.06;99354.91;4911400;29;20138;-80
2021/08/20 18:33:58;;;;;;;15.02;6.65;;;;;;;22.60;51.25;99349.72;4910281;29;20123;-78
2021/08/20 18:36:25;;;;;;;36.20;7.88;;;;;;;22.60;51.68;99355.31;4909815;29;20052;-79
2021/08/20 18:38:52;;;;;;;31.40;7.13;;;;;;;22.57;51.78;99348.53;4909334;29;20068;-79